createdAt,value
2023-05-04T00:01:01.106Z,77.60
2023-05-04T00:03:28.851Z,79.46
2023-05-04T00:05:56.923Z,79.33
2023-05-04T00:08:24.742Z,79.34
2023-05-04T00:10:54.418Z,78.31
2023-05-04T00:13:22.132Z,79.76
2023-05-04T00:15:49.759Z,79.17
2023-05-04T00:18:17.435Z,77.78
2023-05-04T00:20:45.244Z,78.52
2023-05-04T00:23:12.855Z,75.19
2023-05-04T00:25:40.524Z,73.98
2023-05-04T00:28:09.515Z,73.26
2023-05-04T00:30:37.297Z,76.17
2023-05-04T00:33:05.020Z,76.74
2023-05-04T00:35:32.680Z,79.39
2023-05-04T00:38:00.281Z,77.73
2023-05-04T00:40:27.910Z,75.63
2023-05-04T00:42:55.604Z,75.38
2023-05-04T00:45:24.643Z,75.08
2023-05-04T00:47:52.513Z,74.27
2023-05-04T00:50:21.115Z,73.42
2023-05-04T00:52:50.078Z,75.74
2023-05-04T00:55:17.945Z,77.17
2023-05-04T00:57:45.737Z,77.99
2023-05-04T01:00:14.174Z,77.06
2023-05-04T01:02:43.372Z,73.65
2023-05-04T01:05:13.439Z,74.73
2023-05-04T01:07:48.856Z,72.38
2023-05-04T01:10:21.121Z,71.61
2023-05-04T01:12:53.110Z,72.23
2023-05-04T01:15:21.678Z,72.70
2023-05-04T01:17:50.691Z,72.70
2023-05-04T01:20:18.372Z,71.40
2023-05-04T01:22:47.785Z,71.90
2023-05-04T01:25:16.273Z,71.72
2023-05-04T01:27:47.857Z,75.50
2023-05-04T01:30:19.927Z,74.96
2023-05-04T01:32:48.703Z,73.14
2023-05-04T01:35:17.130Z,72.53
2023-05-04T01:37:44.835Z,74.78
2023-05-04T01:40:14.261Z,74.99
2023-05-04T01:42:41.904Z,76.84
2023-05-04T01:45:10.932Z,77.90
2023-05-04T01:47:38.763Z,81.22
2023-05-04T01:50:07.370Z,79.88
2023-05-04T01:52:34.997Z,81.39
2023-05-04T01:55:02.699Z,81.04
2023-05-04T01:57:31.730Z,81.09
2023-05-04T01:59:59.479Z,80.16
2023-05-04T02:02:27.184Z,79.28
2023-05-04T02:04:54.857Z,79.06
2023-05-04T02:07:22.529Z,79.15
2023-05-04T02:09:50.174Z,79.85
2023-05-04T02:12:17.794Z,78.45
2023-05-04T02:14:46.920Z,79.23
2023-05-04T02:17:14.545Z,79.10
2023-05-04T02:19:42.157Z,78.53
2023-05-04T02:22:09.947Z,79.03
2023-05-04T02:24:37.582Z,78.57
2023-05-04T02:27:05.293Z,78.79
2023-05-04T02:29:32.896Z,79.49
2023-05-04T02:32:01.965Z,80.25
2023-05-04T02:34:31.405Z,78.78
2023-05-04T02:36:59.047Z,80.02
2023-05-04T02:39:26.675Z,78.66
2023-05-04T02:41:54.300Z,78.23
2023-05-04T02:44:21.994Z,79.35
2023-05-04T02:46:49.700Z,78.41
2023-05-04T02:49:18.678Z,77.74
2023-05-04T02:51:47.355Z,78.93
2023-05-04T02:54:15.068Z,79.12
2023-05-04T02:56:42.725Z,76.91
2023-05-04T02:59:10.350Z,77.67
2023-05-04T03:01:38.036Z,78.06
2023-05-04T03:04:06.839Z,78.15
2023-05-04T03:06:36.202Z,77.47
2023-05-04T03:09:04.425Z,77.20
2023-05-04T03:11:32.080Z,78.56
2023-05-04T03:13:59.682Z,79.78
2023-05-04T03:16:27.323Z,79.40
2023-05-04T03:18:57.805Z,79.82
2023-05-04T03:21:25.492Z,77.94
2023-05-04T03:23:54.448Z,80.58
2023-05-04T03:26:22.238Z,80.24
2023-05-04T03:28:49.908Z,80.13
2023-05-04T03:31:17.562Z,80.09
2023-05-04T03:33:45.350Z,79.56
2023-05-04T03:36:12.947Z,78.77
2023-05-04T03:38:41.676Z,79.09
2023-05-04T03:41:11.621Z,79.06
2023-05-04T03:43:39.356Z,78.67
2023-05-04T03:46:07.128Z,78.17
2023-05-04T03:48:34.813Z,78.57
2023-05-04T03:51:02.819Z,80.68
2023-05-04T03:53:31.028Z,79.60
2023-05-04T03:55:58.643Z,76.64
2023-05-04T03:58:27.812Z,79.09
2023-05-04T04:00:55.441Z,78.28
2023-05-04T04:03:23.265Z,77.71
2023-05-04T04:05:51.294Z,77.84
2023-05-04T04:08:18.929Z,75.93
2023-05-04T04:10:46.578Z,76.80
2023-05-04T04:13:14.438Z,77.94
2023-05-04T04:15:45.589Z,76.64
2023-05-04T04:18:13.342Z,77.04
2023-05-04T04:20:41.024Z,75.04
2023-05-04T04:23:08.826Z,76.17
2023-05-04T04:25:36.526Z,74.43
2023-05-04T04:28:04.473Z,74.30
2023-05-04T04:30:32.069Z,75.66
2023-05-04T04:33:01.053Z,74.62
2023-05-04T04:35:28.750Z,73.56
2023-05-04T04:37:56.430Z,72.47
2023-05-04T04:40:24.064Z,71.68
2023-05-04T04:42:52.356Z,73.90
2023-05-04T04:45:20.470Z,73.32
2023-05-04T04:47:48.280Z,72.54
2023-05-04T04:50:17.488Z,74.90
2023-05-04T04:52:45.109Z,71.58
2023-05-04T04:55:13.217Z,72.60
2023-05-04T04:57:40.936Z,70.72
2023-05-04T05:00:10.405Z,70.18
2023-05-04T05:02:38.426Z,66.10
2023-05-04T05:05:07.018Z,61.71
2023-05-04T05:07:36.581Z,61.84
2023-05-04T05:10:05.116Z,61.76
2023-05-04T05:12:32.997Z,61.38
2023-05-04T05:15:00.696Z,60.66
2023-05-04T05:17:28.762Z,59.99
2023-05-04T05:19:56.391Z,58.07
2023-05-04T05:22:24.016Z,59.89
2023-05-04T05:24:53.053Z,57.83
2023-05-04T05:27:20.677Z,54.77
2023-05-04T05:29:48.293Z,56.40
2023-05-04T05:32:15.955Z,58.32
2023-05-04T05:34:43.565Z,53.41
2023-05-04T05:37:11.201Z,54.57
2023-05-04T05:39:38.804Z,56.90
2023-05-04T05:42:07.788Z,54.11
2023-05-04T05:44:37.334Z,57.59
2023-05-04T05:47:05.009Z,59.44
2023-05-04T05:49:32.932Z,59.82
2023-05-04T05:52:00.548Z,57.50
2023-05-04T05:54:28.458Z,56.87
2023-05-04T05:56:56.121Z,55.73
2023-05-04T05:59:25.153Z,56.10
2023-05-04T06:01:53.081Z,55.52
2023-05-04T06:04:20.884Z,52.79
2023-05-04T06:06:48.587Z,54.04
2023-05-04T06:09:16.893Z,50.73
2023-05-04T06:11:44.532Z,52.82
2023-05-04T06:14:12.178Z,53.41
2023-05-04T06:16:41.378Z,53.14
2023-05-04T06:19:09.109Z,57.12
2023-05-04T06:21:36.915Z,57.69
2023-05-04T06:24:04.853Z,56.03
2023-05-04T06:26:32.504Z,53.54
2023-05-04T06:29:00.436Z,56.15
2023-05-04T06:31:28.688Z,54.20
2023-05-04T06:33:57.974Z,56.51
2023-05-04T06:36:26.664Z,54.42
2023-05-04T06:38:55.572Z,47.88
2023-05-04T06:41:23.438Z,47.37
2023-05-04T06:43:51.119Z,49.77
2023-05-04T06:46:19.187Z,53.36
2023-05-04T06:48:46.924Z,55.15
2023-05-04T06:51:16.579Z,50.98
2023-05-04T06:53:44.344Z,51.27
2023-05-04T06:56:12.391Z,53.30
2023-05-04T06:58:40.074Z,52.77
2023-05-04T07:01:14.529Z,53.68
2023-05-04T07:03:43.919Z,54.68
2023-05-04T07:06:11.576Z,55.41
2023-05-04T07:08:40.598Z,57.25
2023-05-04T07:11:10.374Z,54.97
2023-05-04T07:13:39.331Z,53.44
2023-05-04T07:16:08.639Z,53.54
2023-05-04T07:18:36.552Z,52.22
2023-05-04T07:21:22.041Z,50.46
2023-05-04T07:23:54.989Z,53.32
2023-05-04T07:26:22.859Z,52.78
2023-05-04T07:28:50.584Z,52.42
2023-05-04T07:31:18.293Z,50.68
2023-05-04T07:33:46.111Z,47.79
2023-05-04T07:36:13.755Z,48.62
2023-05-04T07:38:41.695Z,49.19
2023-05-04T07:41:10.718Z,48.17
2023-05-04T07:43:38.483Z,45.45
2023-05-04T07:46:06.421Z,48.08
2023-05-04T07:48:37.650Z,50.86
2023-05-04T07:51:05.719Z,50.77
2023-05-04T07:53:34.062Z,53.65
2023-05-04T07:56:11.226Z,50.89
2023-05-04T07:58:38.989Z,51.81
2023-05-04T08:01:06.880Z,52.85
2023-05-04T08:03:34.539Z,51.36
2023-05-04T08:06:02.286Z,51.12
2023-05-04T08:08:30.026Z,51.63
2023-05-04T08:11:11.690Z,51.08
2023-05-04T08:13:48.325Z,48.59
2023-05-04T08:16:16.301Z,47.57
2023-05-04T08:18:44.022Z,47.95
2023-05-04T08:21:11.841Z,47.46
2023-05-04T08:23:39.588Z,51.26
2023-05-04T08:26:07.252Z,51.43
2023-05-04T08:28:37.606Z,51.49
2023-05-04T08:31:07.762Z,52.39
2023-05-04T08:33:35.917Z,52.15
2023-05-04T08:36:04.595Z,54.93
2023-05-04T08:38:32.553Z,52.92
2023-05-04T08:41:03.150Z,51.64
2023-05-04T08:43:31.042Z,52.26
2023-05-04T08:45:58.792Z,49.44
2023-05-04T08:48:27.955Z,47.83
2023-05-04T08:50:56.188Z,47.84
2023-05-04T08:53:24.371Z,45.63
2023-05-04T08:55:56.041Z,48.60
2023-05-04T08:58:26.031Z,47.95
2023-05-04T09:00:54.012Z,46.72
2023-05-04T09:03:22.186Z,47.41
2023-05-04T09:05:52.610Z,49.43
2023-05-04T09:08:21.018Z,51.01
2023-05-04T09:10:48.707Z,52.58
2023-05-04T09:13:16.415Z,52.50
2023-05-04T09:15:44.178Z,52.27
2023-05-04T09:18:11.994Z,53.16
2023-05-04T09:20:47.133Z,53.13
2023-05-04T09:23:18.038Z,53.56
2023-05-04T09:25:49.759Z,53.03
2023-05-04T09:28:19.109Z,55.38
2023-05-04T09:30:48.369Z,54.78
2023-05-04T09:33:16.534Z,52.53
2023-05-04T09:35:45.332Z,54.31
2023-05-04T09:38:13.044Z,52.47
2023-05-04T09:40:43.339Z,51.88
2023-05-04T09:43:13.377Z,53.03
2023-05-04T09:45:44.647Z,51.27
2023-05-04T09:48:25.596Z,49.20
2023-05-04T09:50:54.726Z,50.41
2023-05-04T09:53:24.806Z,50.79
2023-05-04T09:56:07.317Z,50.22
2023-05-04T09:58:36.353Z,50.78
2023-05-04T10:01:04.670Z,51.22
2023-05-04T10:03:33.199Z,49.53
2023-05-04T10:06:04.131Z,49.17
2023-05-04T10:08:33.656Z,51.16
2023-05-04T10:11:02.819Z,51.84
2023-05-04T10:13:30.562Z,51.38
2023-05-04T10:16:12.792Z,51.78
2023-05-04T10:19:01.424Z,51.42
2023-05-04T10:21:34.274Z,50.29
2023-05-04T10:24:30.539Z,50.06
2023-05-04T10:27:11.780Z,49.70
2023-05-04T10:29:40.584Z,49.43
2023-05-04T10:32:18.999Z,49.17
2023-05-04T10:34:46.857Z,48.61
2023-05-04T10:37:18.477Z,48.34
2023-05-04T10:39:52.677Z,49.64
2023-05-04T10:42:22.856Z,49.57
2023-05-04T10:44:52.514Z,47.94
2023-05-04T10:47:29.179Z,46.22
2023-05-04T10:50:04.650Z,45.43
2023-05-04T10:52:33.313Z,46.08
2023-05-04T10:55:02.063Z,46.52
2023-05-04T10:57:31.368Z,49.65
2023-05-04T10:59:59.838Z,48.84
2023-05-04T11:02:30.462Z,47.62
2023-05-04T11:05:04.218Z,48.26
2023-05-04T11:07:37.641Z,47.27
2023-05-04T11:10:06.511Z,46.71
2023-05-04T11:12:36.135Z,47.43
2023-05-04T11:15:08.781Z,46.00
2023-05-04T11:17:46.438Z,48.84
2023-05-04T11:20:21.572Z,48.70
2023-05-04T11:22:49.575Z,48.63
2023-05-04T11:25:17.955Z,49.02
2023-05-04T11:27:50.066Z,48.78
2023-05-04T11:30:18.113Z,49.82
2023-05-04T11:32:46.884Z,47.43
2023-05-04T11:35:17.942Z,49.54
2023-05-04T11:37:46.866Z,48.88
2023-05-04T11:40:16.467Z,46.99
2023-05-04T11:42:44.757Z,47.47
2023-05-04T11:45:18.196Z,45.40
2023-05-04T11:47:47.172Z,45.69
2023-05-04T11:50:17.162Z,47.13
2023-05-04T11:52:45.662Z,47.08
2023-05-04T11:55:25.120Z,47.75
2023-05-04T11:57:57.880Z,47.60
2023-05-04T12:00:38.791Z,44.62
2023-05-04T12:03:07.524Z,47.01
2023-05-04T12:05:35.988Z,47.53
2023-05-04T12:08:04.558Z,47.06
2023-05-04T12:10:34.833Z,47.83
2023-05-04T12:13:02.698Z,46.93
2023-05-04T12:15:32.424Z,47.53
2023-05-04T12:18:03.013Z,46.95
2023-05-04T12:20:31.793Z,45.76
2023-05-04T12:23:06.860Z,46.38
2023-05-04T12:25:39.124Z,48.42
2023-05-04T12:28:12.026Z,48.94
2023-05-04T12:30:39.698Z,47.93
2023-05-04T12:33:08.778Z,46.83
2023-05-04T12:35:36.720Z,48.21
2023-05-04T12:38:04.360Z,49.12
2023-05-04T12:40:32.176Z,46.10
2023-05-04T12:42:59.818Z,46.55
2023-05-04T12:45:27.462Z,46.51
2023-05-04T12:47:55.111Z,46.85
2023-05-04T12:50:24.366Z,46.21
2023-05-04T12:52:51.969Z,46.08
2023-05-04T12:55:19.618Z,46.17
2023-05-04T12:57:47.229Z,45.86
2023-05-04T13:00:16.331Z,48.15
2023-05-04T13:02:44.444Z,48.95
2023-05-04T13:05:13.103Z,47.67
2023-05-04T13:07:42.179Z,46.02
2023-05-04T13:10:10.576Z,46.83
2023-05-04T13:12:38.892Z,47.16
2023-05-04T13:15:07.509Z,46.85
2023-05-04T13:17:35.603Z,45.22
2023-05-04T13:20:05.974Z,45.78
2023-05-04T13:22:34.126Z,46.43
2023-05-04T13:25:03.059Z,47.10
2023-05-04T13:27:30.930Z,45.42
2023-05-04T13:30:00.984Z,45.98
2023-05-04T13:32:28.828Z,44.52
2023-05-04T13:34:56.551Z,44.43
2023-05-04T13:37:24.265Z,46.00
2023-05-04T13:39:52.023Z,45.04
2023-05-04T13:42:21.180Z,46.28
2023-05-04T13:44:48.919Z,46.20
2023-05-04T13:47:17.537Z,46.27
2023-05-04T13:49:45.285Z,45.92
2023-05-04T13:52:13.498Z,45.09
2023-05-04T13:54:41.378Z,43.69
2023-05-04T13:57:09.044Z,43.57
2023-05-04T13:59:38.024Z,45.13
2023-05-04T14:02:05.874Z,45.28
2023-05-04T14:04:33.585Z,43.28
2023-05-04T14:07:01.266Z,45.20
2023-05-04T14:09:29.169Z,44.38
2023-05-04T14:11:56.857Z,43.39
2023-05-04T14:14:24.474Z,44.63
2023-05-04T14:16:53.597Z,44.87
2023-05-04T14:19:21.375Z,43.98
2023-05-04T14:21:49.023Z,45.96
2023-05-04T14:24:16.646Z,46.73
2023-05-04T14:26:44.329Z,45.76
2023-05-04T14:29:11.967Z,44.25
2023-05-04T14:31:39.712Z,45.91
2023-05-04T14:34:08.764Z,45.55
2023-05-04T14:36:36.605Z,45.85
2023-05-04T14:39:04.435Z,45.01
2023-05-04T14:41:33.600Z,46.52
2023-05-04T14:44:01.464Z,45.90
2023-05-04T14:46:29.959Z,45.91
2023-05-04T14:48:57.711Z,45.40
2023-05-04T14:51:33.772Z,45.39
2023-05-04T14:54:02.007Z,46.48
2023-05-04T14:56:29.659Z,45.66
2023-05-04T14:58:57.987Z,46.02
2023-05-04T15:01:26.082Z,46.30
2023-05-04T15:03:53.958Z,44.65
2023-05-04T15:06:21.698Z,46.04
2023-05-04T15:08:51.148Z,45.71
2023-05-04T15:11:19.448Z,46.90
2023-05-04T15:13:47.185Z,45.43
2023-05-04T15:16:18.584Z,44.75
2023-05-04T15:18:46.291Z,46.02
2023-05-04T15:21:14.129Z,46.10
2023-05-04T15:23:41.747Z,43.94
2023-05-04T15:26:10.767Z,43.26
2023-05-04T15:28:38.383Z,44.31
2023-05-04T15:31:07.321Z,44.95
2023-05-04T15:33:35.048Z,45.61
2023-05-04T15:36:07.083Z,45.52
2023-05-04T15:38:34.841Z,45.91
2023-05-04T15:41:02.869Z,46.51
2023-05-04T15:43:32.543Z,46.44
2023-05-04T15:46:00.346Z,45.70
2023-05-04T15:48:28.390Z,45.78
2023-05-04T15:50:56.615Z,46.16
2023-05-04T15:53:24.299Z,44.59
2023-05-04T15:55:52.311Z,43.30
2023-05-04T15:58:20.166Z,43.73
2023-05-04T16:00:49.752Z,44.73
2023-05-04T16:03:17.584Z,44.13
2023-05-04T16:05:45.479Z,45.43
2023-05-04T16:08:13.484Z,44.22
2023-05-04T16:10:41.128Z,44.16
2023-05-04T16:13:10.623Z,44.44
2023-05-04T16:15:39.806Z,44.24
2023-05-04T16:18:08.881Z,44.25
2023-05-04T16:20:36.657Z,44.37
2023-05-04T16:23:04.346Z,43.76
2023-05-04T16:25:32.085Z,44.18
2023-05-04T16:27:59.738Z,45.45
2023-05-04T16:30:34.353Z,45.56
2023-05-04T16:33:02.577Z,44.36
2023-05-04T16:35:32.712Z,44.89
2023-05-04T16:38:00.481Z,43.42
2023-05-04T16:40:28.519Z,44.96
2023-05-04T16:42:56.142Z,45.04
2023-05-04T16:45:25.573Z,44.73
2023-05-04T16:47:53.341Z,44.79
2023-05-04T16:50:21.003Z,45.04
2023-05-04T16:52:50.049Z,45.50
2023-05-04T16:55:17.761Z,47.21
2023-05-04T16:57:45.870Z,52.35
2023-05-04T17:00:14.686Z,53.65
2023-05-04T17:02:42.616Z,55.43
2023-05-04T17:05:11.221Z,55.33
2023-05-04T17:07:40.097Z,58.12
2023-05-04T17:10:10.772Z,56.67
2023-05-04T17:12:38.707Z,57.55
2023-05-04T17:15:07.620Z,57.08
2023-05-04T17:17:35.333Z,57.89
2023-05-04T17:20:03.671Z,59.37
2023-05-04T17:22:31.445Z,59.69
2023-05-04T17:24:59.154Z,59.17
2023-05-04T17:27:28.180Z,60.03
2023-05-04T17:29:55.912Z,58.68
2023-05-04T17:32:23.717Z,59.14
2023-05-04T17:34:51.386Z,59.43
2023-05-04T17:37:19.276Z,59.77
2023-05-04T17:39:47.185Z,59.15
2023-05-04T17:42:15.841Z,60.08
2023-05-04T17:44:44.984Z,58.87
2023-05-04T17:47:12.652Z,60.49
2023-05-04T17:49:40.338Z,58.86
2023-05-04T17:52:08.007Z,59.73
2023-05-04T17:54:35.815Z,58.94
2023-05-04T17:57:03.429Z,59.89
2023-05-04T17:59:31.451Z,60.73
2023-05-04T18:02:00.514Z,59.50
2023-05-04T18:04:31.315Z,60.17
2023-05-04T18:06:59.068Z,59.41
2023-05-04T18:09:26.888Z,60.92
2023-05-04T18:11:54.539Z,60.64
2023-05-04T18:14:22.275Z,59.54
2023-05-04T18:16:49.895Z,59.76
2023-05-04T18:19:23.794Z,60.99
2023-05-04T18:21:51.722Z,60.02
2023-05-04T18:24:19.562Z,58.59
2023-05-04T18:26:48.262Z,60.91
2023-05-04T18:29:19.502Z,58.82
2023-05-04T18:31:47.679Z,58.06
2023-05-04T18:34:15.496Z,62.10
2023-05-04T18:36:44.901Z,63.08
2023-05-04T18:39:13.550Z,61.91
2023-05-04T18:41:41.431Z,62.87
2023-05-04T18:44:09.979Z,61.91
2023-05-04T18:46:37.744Z,61.24
2023-05-04T18:49:05.658Z,62.65
2023-05-04T18:51:33.286Z,63.56
2023-05-04T18:54:02.323Z,63.91
2023-05-04T18:56:30.069Z,63.54
2023-05-04T18:58:57.694Z,63.10
2023-05-04T19:01:26.400Z,61.48
2023-05-04T19:03:54.107Z,65.08
2023-05-04T19:06:21.794Z,64.61
2023-05-04T19:08:49.464Z,64.34
2023-05-04T19:11:18.608Z,65.08
2023-05-04T19:13:46.190Z,63.62
2023-05-04T19:16:14.151Z,64.32
2023-05-04T19:18:43.170Z,65.51
2023-05-04T19:21:10.859Z,65.07
2023-05-04T19:23:38.568Z,65.81
2023-05-04T19:26:06.403Z,65.18
2023-05-04T19:28:35.502Z,65.15
2023-05-04T19:31:03.140Z,66.24
2023-05-04T19:33:44.557Z,65.01
2023-05-04T19:36:15.270Z,65.50
2023-05-04T19:38:42.929Z,64.84
2023-05-04T19:41:10.646Z,65.52
2023-05-04T19:43:39.636Z,64.55
2023-05-04T19:46:08.074Z,65.45
2023-05-04T19:48:35.759Z,63.40
2023-05-04T19:51:04.824Z,64.34
2023-05-04T19:53:32.463Z,65.69
2023-05-04T19:56:00.222Z,64.60
2023-05-04T19:58:28.332Z,66.53
2023-05-04T20:00:57.814Z,65.58
2023-05-04T20:03:25.730Z,64.12
2023-05-04T20:05:53.996Z,64.51
2023-05-04T20:08:21.708Z,62.95
2023-05-04T20:10:49.339Z,63.77
2023-05-04T20:13:17.073Z,67.02
2023-05-04T20:15:44.976Z,66.05
2023-05-04T20:18:14.049Z,64.73
2023-05-04T20:20:41.790Z,66.56
2023-05-04T20:23:09.487Z,66.48
2023-05-04T20:25:37.211Z,66.09
2023-05-04T20:28:05.105Z,66.88
2023-05-04T20:30:32.805Z,65.83
2023-05-04T20:33:00.515Z,65.19
2023-05-04T20:35:29.621Z,66.87
2023-05-04T20:37:57.915Z,66.94
2023-05-04T20:40:25.794Z,68.49
2023-05-04T20:42:53.588Z,68.64
2023-05-04T20:45:21.430Z,66.55
2023-05-04T20:47:49.342Z,69.63
2023-05-04T20:50:17.915Z,69.71
2023-05-04T20:52:47.019Z,70.97
2023-05-04T20:55:15.188Z,68.57
2023-05-04T20:57:43.052Z,69.48
2023-05-04T21:00:12.246Z,69.42
2023-05-04T21:02:40.066Z,68.48
2023-05-04T21:05:08.691Z,70.15
2023-05-04T21:07:36.336Z,70.27
2023-05-04T21:10:06.313Z,69.20
2023-05-04T21:12:34.405Z,71.71
2023-05-04T21:15:02.040Z,72.19
2023-05-04T21:17:29.671Z,72.18
2023-05-04T21:19:57.454Z,72.17
2023-05-04T21:22:25.192Z,73.16
2023-05-04T21:24:52.851Z,72.69
2023-05-04T21:27:21.876Z,72.85
2023-05-04T21:29:49.502Z,72.87
2023-05-04T21:32:17.151Z,73.51
2023-05-04T21:34:44.833Z,73.16
2023-05-04T21:37:12.458Z,72.78
2023-05-04T21:39:40.143Z,74.28
2023-05-04T21:42:07.820Z,73.21
2023-05-04T21:44:36.824Z,72.36
2023-05-04T21:47:04.587Z,72.13
2023-05-04T21:49:32.243Z,73.20
2023-05-04T21:51:59.918Z,74.38
2023-05-04T21:54:27.538Z,72.70
2023-05-04T21:56:55.345Z,74.76
2023-05-04T21:59:22.963Z,72.52
2023-05-04T22:01:51.885Z,72.69
2023-05-04T22:04:19.660Z,73.93
2023-05-04T22:06:48.185Z,74.58
2023-05-04T22:09:15.914Z,74.52
2023-05-04T22:11:43.554Z,74.84
2023-05-04T22:14:11.170Z,70.64
2023-05-04T22:16:38.908Z,70.67
2023-05-04T22:19:07.917Z,74.01
2023-05-04T22:21:36.840Z,71.05
2023-05-04T22:24:06.719Z,71.38
2023-05-04T22:26:34.335Z,70.46
2023-05-04T22:29:01.996Z,72.97
2023-05-04T22:31:29.683Z,71.42
2023-05-04T22:33:57.330Z,72.51
2023-05-04T22:36:26.604Z,71.70
2023-05-04T22:38:54.377Z,71.15
2023-05-04T22:41:22.640Z,70.81
2023-05-04T22:43:50.595Z,71.41
2023-05-04T22:46:18.803Z,70.51
2023-05-04T22:48:47.548Z,70.44
2023-05-04T22:51:15.564Z,69.87
2023-05-04T22:53:44.882Z,69.18
2023-05-04T22:56:12.660Z,68.68
2023-05-04T22:58:40.740Z,69.35
2023-05-04T23:01:10.521Z,70.02
2023-05-04T23:03:38.945Z,68.36
2023-05-04T23:06:08.588Z,68.46
2023-05-04T23:08:36.443Z,68.54
2023-05-04T23:11:14.152Z,69.28
2023-05-04T23:13:41.890Z,67.57
2023-05-04T23:16:09.566Z,68.04
2023-05-04T23:18:37.217Z,67.88
2023-05-04T23:21:05.035Z,67.52
2023-05-04T23:23:32.657Z,68.83
2023-05-04T23:26:00.326Z,68.50
2023-05-04T23:28:29.289Z,68.15
2023-05-04T23:30:56.933Z,68.13
2023-05-04T23:33:24.669Z,67.94
2023-05-04T23:35:55.372Z,67.81
2023-05-04T23:38:23.734Z,67.76
2023-05-04T23:40:52.441Z,68.16
2023-05-04T23:43:20.315Z,68.30
2023-05-04T23:45:49.335Z,68.51
2023-05-04T23:48:16.992Z,68.08
2023-05-04T23:50:53.927Z,67.25
2023-05-04T23:53:21.668Z,67.98
2023-05-04T23:55:57.668Z,67.50
2023-05-04T23:58:25.750Z,66.99
